Time;durP1;ratioP1;P1;durP2;ratioP2;P2;SDS_P1;SDS_P2;PMS_P1;PMS_P2;Temp;Humidity;BMP_temperature;BMP_pressure;BME280_temperature;BME280_humidity;BME280_pressure;Samples;Min_cycle;Max_cycle;Signal;HPM_P1;HPM_P2
2023/06/17 00:02:17;;;;;;;5.88;4.20;;;410.50;2355.20;;;;;;5052180;28;20385;-82
2023/06/17 00:04:43;;;;;;;5.45;4.43;;;410.50;2355.20;;;;;;5052205;28;20030;-85
2023/06/17 00:07:09;;;;;;;6.82;5.25;;;435.20;2355.20;;;;;;5036429;28;20580;-82
2023/06/17 00:09:34;;;;;;;6.03;4.78;;;435.20;2355.20;;;;;;5051565;28;20458;-83
2023/06/17 00:12:02;;;;;;;6.55;5.50;;;435.20;2355.20;;;;;;5036586;28;20025;-83
2023/06/17 00:14:28;;;;;;;6.13;4.95;;;435.20;2355.20;;;;;;5051789;28;20389;-81
2023/06/17 00:16:54;;;;;;;7.38;4.72;;;435.20;2355.20;;;;;;5051790;28;20026;-83
2023/06/17 00:19:20;;;;;;;6.70;5.20;;;410.50;2355.20;;;;;;5051803;28;20030;-82
2023/06/17 00:21:49;;;;;;;7.18;5.47;;;410.50;2355.20;;;;;;5035800;28;20366;-81
2023/06/17 00:24:19;;;;;;;6.65;5.40;;;410.50;2355.20;;;;;;5051604;28;20156;-81
2023/06/17 00:26:46;;;;;;;7.85;6.22;;;435.20;2355.20;;;;;;5051734;28;20496;-83
2023/06/17 00:29:11;;;;;;;7.38;5.90;;;435.20;2355.20;;;;;;5051488;28;20022;-83
2023/06/17 00:31:37;;;;;;;7.60;5.75;;;435.20;2355.20;;;;;;5069477;28;20029;-82
2023/06/17 00:34:03;;;;;;;7.60;6.07;;;435.20;2355.20;;;;;;5071656;28;20078;-82
2023/06/17 00:36:29;;;;;;;8.50;6.70;;;435.20;2355.20;;;;;;5056287;28;20028;-81
2023/06/17 00:38:55;;;;;;;9.57;6.95;;;435.20;2355.20;;;;;;5071449;28;20082;-82
2023/06/17 00:41:21;;;;;;;7.65;6.60;;;435.30;2355.20;;;;;;5071547;28;20034;-82
2023/06/17 00:43:47;;;;;;;8.75;7.50;;;435.30;2355.20;;;;;;5071002;28;20433;-82
2023/06/17 00:46:46;;;;;;;8.90;7.75;;;435.20;2355.20;;;;;;5071504;28;20078;-81
2023/06/17 00:49:13;;;;;;;9.25;8.23;;;435.20;2355.20;;;;;;5054131;28;20086;-82
2023/06/17 00:51:39;;;;;;;9.70;8.50;;;435.30;2355.20;;;;;;5071319;28;20440;-82
2023/06/17 00:54:07;;;;;;;11.07;8.82;;;435.30;2355.20;;;;;;5071481;28;20389;-81
2023/06/17 00:56:34;;;;;;;10.07;8.88;;;435.30;2355.20;;;;;;5071098;28;20095;-82
2023/06/17 00:59:01;;;;;;;12.13;9.30;;;435.20;2355.20;;;;;;5071165;28;20055;-83
2023/06/17 01:01:29;;;;;;;11.68;9.35;;;435.30;2355.20;;;;;;5055588;28;20027;-81
2023/06/17 01:03:59;;;;;;;10.43;9.25;;;435.30;2355.20;;;;;;5070728;28;20025;-83
2023/06/17 01:06:55;;;;;;;10.13;9.05;;;435.20;2355.20;;;;;;5070503;28;20106;-80
2023/06/17 01:09:29;;;;;;;9.80;8.80;;;435.30;2355.20;;;;;;5054215;28;20137;-82
2023/06/17 01:11:56;;;;;;;;;;;435.30;2355.20;;;;;;5071140;28;20033;-82
2023/06/17 01:14:24;;;;;;;10.30;8.82;;;435.30;2355.20;;;;;;5055369;28;19905;-81
2023/06/17 01:16:54;;;;;;;12.27;9.57;;;435.30;2355.20;;;;;;5070594;28;20380;-80
2023/06/17 01:19:29;;;;;;;10.20;9.05;;;435.20;2355.20;;;;;;5070838;28;20119;-82
2023/06/17 01:21:57;;;;;;;11.65;9.20;;;435.20;2355.20;;;;;;5054643;28;20027;-81
2023/06/17 01:24:33;;;;;;;11.13;9.00;;;435.20;2355.20;;;;;;5054673;28;20113;-84
2023/06/17 01:27:02;;;;;;;8.88;7.88;;;435.20;2355.20;;;;;;5055294;28;20035;-84
2023/06/17 01:29:36;;;;;;;10.60;8.57;;;435.30;2355.20;;;;;;5070628;28;20381;-82
2023/06/17 01:32:06;;;;;;;9.18;8.10;;;435.20;2355.20;;;;;;5070341;28;20025;-83
2023/06/17 01:34:49;;;;;;;10.48;8.25;;;435.30;2355.20;;;;;;5070398;28;20044;-85
2023/06/17 01:37:23;;;;;;;8.90;7.40;;;435.30;2355.20;;;;;;5070337;28;20056;-83
2023/06/17 01:39:51;;;;;;;9.40;8.18;;;435.30;2150.40;;;;;;5054383;28;20036;-83
2023/06/17 01:42:29;;;;;;;9.50;8.10;;;435.20;2355.20;;;;;;5070333;28;20479;-82
2023/06/17 01:44:56;;;;;;;8.68;7.78;;;435.20;2355.20;;;;;;5069875;28;20033;-82
2023/06/17 01:47:21;;;;;;;9.32;8.30;;;435.20;2355.20;;;;;;5069865;28;20033;-82
2023/06/17 01:49:47;;;;;;;13.90;8.80;;;435.20;2355.20;;;;;;5070185;28;20025;-83
2023/06/17 01:52:13;;;;;;;10.07;9.02;;;435.30;2355.20;;;;;;5069957;28;20040;-83
2023/06/17 01:54:39;;;;;;;10.45;9.20;;;435.30;2355.20;;;;;;5070069;28;20104;-84
2023/06/17 01:57:05;;;;;;;10.18;8.98;;;435.30;2355.20;;;;;;5069994;28;20048;-83
2023/06/17 01:59:31;;;;;;;11.63;9.30;;;435.30;2201.60;;;;;;5069716;28;20045;-83
2023/06/17 02:01:57;;;;;;;10.77;9.43;;;435.30;2304.00;;;;;;5054481;28;20025;-84
2023/06/17 02:04:23;;;;;;;12.85;10.68;;;435.30;2355.20;;;;;;5069802;28;20384;-83
2023/06/17 02:06:49;;;;;;;12.15;10.85;;;435.30;2355.20;;;;;;5052774;28;20064;-84
2023/06/17 02:09:15;;;;;;;12.65;10.10;;;410.50;2355.20;;;;;;5053130;28;20435;-84
2023/06/17 02:11:40;;;;;;;13.02;11.60;;;435.30;2355.20;;;;;;5052767;28;20024;-84
2023/06/17 02:14:06;;;;;;;13.18;11.73;;;435.30;2201.60;;;;;;5052660;28;20116;-84
2023/06/17 02:16:32;;;;;;;16.65;13.02;;;435.30;2355.20;;;;;;5052964;28;20025;-83
2023/06/17 02:18:58;;;;;;;14.57;12.48;;;435.30;2355.20;;;;;;5053014;28;20021;-82
2023/06/17 02:21:23;;;;;;;14.45;12.95;;;435.30;2355.20;;;;;;5052762;28;20025;-81
2023/06/17 02:23:50;;;;;;;14.98;13.38;;;435.30;2355.20;;;;;;5052865;28;20021;-81
2023/06/17 02:26:16;;;;;;;14.00;12.52;;;435.40;2355.20;;;;;;5053120;28;20418;-81
2023/06/17 02:28:43;;;;;;;17.92;13.43;;;435.30;2355.20;;;;;;5053959;28;20063;-81
2023/06/17 02:31:09;;;;;;;14.80;12.88;;;435.50;2355.20;;;;;;5054128;28;20098;-81
2023/06/17 02:33:35;;;;;;;14.35;12.88;;;435.20;2304.00;;;;;;5052610;28;20592;-82
2023/06/17 02:36:01;;;;;;;15.68;13.30;;;435.40;2355.20;;;;;;5053837;28;20420;-84
2023/06/17 02:38:28;;;;;;;13.85;12.43;;;435.40;2355.20;;;;;;5052857;28;20468;-83
2023/06/17 02:40:54;;;;;;;15.70;13.23;;;435.40;2355.20;;;;;;5052566;28;20036;-83
2023/06/17 02:43:20;;;;;;;16.58;14.35;;;435.30;2355.20;;;;;;5054146;28;20040;-84
2023/06/17 02:45:46;;;;;;;15.27;13.68;;;435.40;2355.20;;;;;;5052698;28;20036;-85
2023/06/17 02:48:12;;;;;;;14.98;13.38;;;435.50;2355.20;;;;;;5052471;28;20032;-84
2023/06/17 02:50:38;;;;;;;15.88;14.27;;;435.40;2355.20;;;;;;5052307;28;20465;-81
2023/06/17 02:53:04;;;;;;;17.20;14.73;;;435.40;2355.20;;;;;;5052512;28;20033;-84
2023/06/17 02:55:30;;;;;;;15.60;13.48;;;435.30;2355.20;;;;;;5042892;28;20037;-82
2023/06/17 02:57:56;;;;;;;16.40;14.27;;;435.40;2355.20;;;;;;5032744;28;20029;-81
2023/06/17 03:00:22;;;;;;;15.38;13.77;;;435.40;2355.20;;;;;;5040360;28;20044;-81
2023/06/17 03:02:49;;;;;;;17.33;14.60;;;435.50;2355.20;;;;;;5052181;28;20029;-82
2023/06/17 03:05:16;;;;;;;15.43;13.82;;;435.50;2355.20;;;;;;5051917;28;20048;-81
2023/06/17 03:07:42;;;;;;;15.73;14.13;;;435.50;2355.20;;;;;;5076132;28;20023;-80
2023/06/17 03:10:09;;;;;;;14.90;13.40;;;435.50;2355.20;;;;;;5068252;28;20029;-80
2023/06/17 03:12:34;;;;;;;17.02;14.00;;;435.50;2355.20;;;;;;5053248;28;20025;-81
2023/06/17 03:15:01;;;;;;;16.88;15.07;;;435.50;2355.20;;;;;;5053794;28;20111;-81
2023/06/17 03:17:27;;;;;;;17.33;14.75;;;435.50;2355.20;;;;;;5052343;28;20025;-83
2023/06/17 03:19:53;;;;;;;15.73;13.32;;;435.50;2355.20;;;;;;5053192;28;20108;-81
2023/06/17 03:22:19;;;;;;;17.05;14.95;;;435.50;2355.20;;;;;;5053310;28;20053;-80
2023/06/17 03:24:46;;;;;;;16.65;14.00;;;435.50;2355.20;;;;;;5052072;28;20033;-82
2023/06/17 03:27:12;;;;;;;14.98;13.32;;;435.50;2355.20;;;;;;5052189;28;20067;-83
2023/06/17 03:29:38;;;;;;;14.75;13.15;;;435.50;2355.20;;;;;;5052105;28;20052;-82
2023/06/17 03:32:04;;;;;;;15.80;12.55;;;435.50;2355.20;;;;;;5052214;28;20109;-82
2023/06/17 03:34:31;;;;;;;14.40;12.95;;;435.50;2355.20;;;;;;5052302;28;20036;-83
2023/06/17 03:36:56;;;;;;;16.10;13.60;;;435.50;2304.00;;;;;;5051911;28;20082;-84
2023/06/17 03:39:23;;;;;;;15.77;13.35;;;435.50;2355.20;;;;;;5052080;28;20415;-81
2023/06/17 03:41:48;;;;;;;14.38;12.30;;;435.50;2150.40;;;;;;5053594;28;20409;-83
2023/06/17 03:44:14;;;;;;;15.13;13.23;;;435.50;2355.20;;;;;;5052158;28;20067;-83
2023/06/17 03:46:40;;;;;;;13.48;11.65;;;435.50;2227.20;;;;;;5057141;28;20086;-82
2023/06/17 03:49:06;;;;;;;13.23;11.82;;;435.50;2355.20;;;;;;5055864;28;20103;-83
2023/06/17 03:51:32;;;;;;;13.32;12.02;;;435.50;2355.20;;;;;;5055835;28;20484;-84
2023/06/17 03:53:58;;;;;;;13.20;11.80;;;436.10;2355.20;;;;;;5055908;28;20029;-82
2023/06/17 03:56:23;;;;;;;14.35;12.82;;;435.50;2355.20;;;;;;5056786;28;20028;-82
2023/06/17 03:58:50;;;;;;;15.82;13.48;;;435.50;2355.20;;;;;;5055615;28;20078;-82
2023/06/17 04:01:15;;;;;;;14.30;12.65;;;435.50;2355.20;;;;;;5055691;28;20028;-83
2023/06/17 04:03:41;;;;;;;14.30;13.00;;;435.50;2355.20;;;;;;5055683;28;20021;-83
2023/06/17 04:06:08;;;;;;;14.27;12.13;;;435.50;2355.20;;;;;;5054994;28;20085;-82
2023/06/17 04:08:35;;;;;;;14.93;13.32;;;435.50;2355.20;;;;;;5055835;28;20078;-83
2023/06/17 04:11:02;;;;;;;15.43;13.57;;;435.50;2355.20;;;;;;5055550;28;20021;-84
2023/06/17 04:13:28;;;;;;;15.02;12.55;;;435.50;2355.20;;;;;;5055224;28;20025;-83
2023/06/17 04:15:54;;;;;;;14.07;12.05;;;435.50;2355.20;;;;;;5056394;28;20027;-84
2023/06/17 04:18:20;;;;;;;13.75;12.27;;;435.50;2355.20;;;;;;5056630;28;20057;-83
2023/06/17 04:20:46;;;;;;;13.88;12.38;;;435.30;2355.20;;;;;;5055268;28;20515;-82
2023/06/17 04:23:11;;;;;;;16.42;14.75;;;435.50;2201.60;;;;;;5055258;28;20029;-83
2023/06/17 04:25:37;;;;;;;14.68;13.18;;;435.50;2355.20;;;;;;5054869;28;20033;-81
2023/06/17 04:28:06;;;;;;;17.25;14.00;;;435.50;2355.20;;;;;;5055286;28;20029;-82
2023/06/17 04:30:33;;;;;;;15.77;14.07;;;435.50;2355.20;;;;;;5055103;28;20491;-81
2023/06/17 04:33:00;;;;;;;17.02;13.95;;;435.50;2355.20;;;;;;5054925;28;20029;-81
2023/06/17 04:35:29;;;;;;;16.00;14.27;;;436.00;2355.20;;;;;;5054983;28;20481;-82
2023/06/17 04:37:55;;;;;;;14.93;13.43;;;435.50;2355.20;;;;;;5055304;28;20495;-84
2023/06/17 04:40:25;;;;;;;13.93;12.52;;;435.50;1996.80;;;;;;5054763;28;20051;-85
2023/06/17 04:42:52;;;;;;;14.77;13.27;;;435.50;2355.20;;;;;;5054956;28;20024;-83
2023/06/17 04:45:18;;;;;;;13.98;12.48;;;435.50;2355.20;;;;;;5054790;28;20455;-82
2023/06/17 04:47:47;;;;;;;15.40;13.80;;;435.50;2355.20;;;;;;5054644;28;20063;-82
2023/06/17 04:50:16;;;;;;;14.40;12.80;;;435.50;2355.20;;;;;;5054834;28;20021;-82
2023/06/17 04:52:43;;;;;;;15.48;13.88;;;435.50;2124.80;;;;;;5054809;28;20428;-85
2023/06/17 04:55:14;;;;;;;16.70;14.57;;;435.50;2355.20;;;;;;5054571;28;20484;-83
2023/06/17 04:57:42;;;;;;;15.82;14.18;;;435.50;2355.20;;;;;;5053789;28;20025;-85
2023/06/17 05:00:10;;;;;;;16.40;14.27;;;435.50;2355.20;;;;;;5055879;28;20461;-82
2023/06/17 05:02:37;;;;;;;17.10;15.27;;;435.50;2355.20;;;;;;5054393;28;20032;-82
2023/06/17 05:05:05;;;;;;;17.35;15.38;;;435.60;2355.20;;;;;;5054424;28;20029;-86
2023/06/17 05:07:30;;;;;;;17.23;15.43;;;435.50;2355.20;;;;;;5055744;28;20029;-83
2023/06/17 05:09:56;;;;;;;17.40;15.60;;;435.50;2355.20;;;;;;5054308;28;20087;-82
2023/06/17 05:12:22;;;;;;;17.73;15.95;;;435.50;2355.20;;;;;;5054637;28;20119;-82
2023/06/17 05:14:47;;;;;;;18.65;16.20;;;435.50;2355.20;;;;;;5054091;28;20081;-85
2023/06/17 05:17:13;;;;;;;20.77;17.13;;;435.60;2355.20;;;;;;5054325;28;20060;-86
2023/06/17 05:19:39;;;;;;;19.00;16.88;;;435.50;2329.60;;;;;;5054262;28;20032;-85
2023/06/17 05:22:05;;;;;;;19.42;17.42;;;435.50;2355.20;;;;;;5054164;28;20063;-86
2023/06/17 05:24:31;;;;;;;18.23;16.15;;;435.60;2355.20;;;;;;5054190;28;20078;-85
2023/06/17 05:26:57;;;;;;;18.20;16.25;;;435.60;2355.20;;;;;;5054345;28;20492;-84
2023/06/17 05:29:22;;;;;;;20.77;17.50;;;435.60;2355.20;;;;;;5053873;28;20110;-86
2023/06/17 05:31:48;;;;;;;19.90;17.85;;;435.60;2355.20;;;;;;5055547;28;20025;-84
2023/06/17 05:34:14;;;;;;;19.00;16.90;;;435.50;2355.20;;;;;;5055594;28;20029;-85
2023/06/17 05:36:40;;;;;;;20.60;18.40;;;435.60;2355.20;;;;;;5055001;28;20032;-85
2023/06/17 05:39:05;;;;;;;21.02;18.83;;;435.60;2355.20;;;;;;5055493;28;20021;-87
2023/06/17 05:41:31;;;;;;;19.88;17.75;;;435.60;2355.20;;;;;;5054030;28;20040;-84
2023/06/17 05:43:57;;;;;;;22.02;19.73;;;435.70;2355.20;;;;;;5053839;28;20029;-85
2023/06/17 05:46:23;;;;;;;22.00;19.35;;;435.70;2355.20;;;;;;5054149;28;20480;-84
2023/06/17 05:48:48;;;;;;;22.17;18.77;;;435.80;2355.20;;;;;;5055175;28;20025;-85
2023/06/17 05:51:16;;;;;;;20.80;18.70;;;435.70;2355.20;;;;;;5053532;28;20025;-85
2023/06/17 05:53:42;;;;;;;20.35;18.17;;;435.70;2355.20;;;;;;5053846;28;20036;-87
2023/06/17 05:56:09;;;;;;;18.98;16.85;;;435.70;2355.20;;;;;;5055354;28;20033;-85
2023/06/17 05:58:36;;;;;;;19.42;17.42;;;435.80;2355.20;;;;;;5054654;28;20017;-85
2023/06/17 06:01:01;;;;;;;20.17;18.00;;;435.80;2355.20;;;;;;5053566;28;20028;-86
2023/06/17 06:03:27;;;;;;;19.25;17.30;;;435.80;2355.20;;;;;;5053322;28;20461;-86
2023/06/17 06:05:53;;;;;;;19.83;16.35;;;435.80;2355.20;;;;;;5052991;28;20138;-86
2023/06/17 06:08:19;;;;;;;18.30;16.40;;;435.70;2355.20;;;;;;5053311;28;20021;-85
2023/06/17 06:10:45;;;;;;;20.10;17.98;;;435.80;2355.20;;;;;;5053387;28;20385;-85
2023/06/17 06:13:11;;;;;;;19.10;16.90;;;435.80;2355.20;;;;;;5053584;28;20124;-86
2023/06/17 06:15:36;;;;;;;19.30;17.02;;;435.80;2355.20;;;;;;5053274;28;20488;-85
2023/06/17 06:18:02;;;;;;;20.00;18.00;;;435.80;2355.20;;;;;;5053149;28;20495;-85
2023/06/17 06:20:28;;;;;;;20.02;17.98;;;435.80;2355.20;;;;;;5054907;28;20024;-85
2023/06/17 06:22:54;;;;;;;19.98;17.92;;;435.80;2355.20;;;;;;5053070;28;20456;-85
2023/06/17 06:25:20;;;;;;;19.65;17.70;;;435.80;2355.20;;;;;;5052966;28;20040;-85
2023/06/17 06:27:49;;;;;;;20.25;18.10;;;435.80;2355.20;;;;;;5053088;28;20112;-83
2023/06/17 06:30:15;;;;;;;21.27;18.27;;;435.80;2355.20;;;;;;5052822;28;20045;-85
2023/06/17 06:32:41;;;;;;;20.35;17.77;;;435.80;2355.20;;;;;;5052984;28;20469;-85
2023/06/17 06:35:07;;;;;;;19.17;16.75;;;435.80;2355.20;;;;;;5053125;28;20025;-85
2023/06/17 06:37:32;;;;;;;15.75;14.13;;;435.80;2355.20;;;;;;5053277;28;20029;-87
2023/06/17 06:39:59;;;;;;;17.83;16.00;;;435.80;2329.60;;;;;;5052795;28;20036;-85
2023/06/17 06:42:25;;;;;;;19.13;16.83;;;435.80;2355.20;;;;;;5052840;28;20078;-85
2023/06/17 06:44:51;;;;;;;17.88;16.08;;;435.80;2355.20;;;;;;5052743;28;20124;-84
2023/06/17 06:47:17;;;;;;;18.00;16.20;;;435.90;2355.20;;;;;;5052781;28;20033;-84
2023/06/17 06:49:43;;;;;;;16.85;15.07;;;435.90;2355.20;;;;;;5052811;28;20027;-83
2023/06/17 06:52:09;;;;;;;25.25;22.83;;;436.00;2355.20;;;;;;5052549;28;20029;-84
2023/06/17 06:54:35;;;;;;;19.40;17.42;;;436.00;2355.20;;;;;;5050962;28;20079;-84
2023/06/17 06:57:01;;;;;;;17.60;15.80;;;436.00;2355.20;;;;;;5034216;28;20025;-86
2023/06/17 06:59:26;;;;;;;16.75;15.05;;;436.00;2355.20;;;;;;5053784;28;20029;-84
2023/06/17 07:01:52;;;;;;;17.60;15.35;;;436.10;2355.20;;;;;;5052723;28;20022;-84
2023/06/17 07:04:22;;;;;;;17.80;15.98;;;436.10;2355.20;;;;;;5050649;28;20108;-85
2023/06/17 07:06:48;;;;;;;18.40;16.40;;;436.10;2355.20;;;;;;5054306;28;20120;-84
2023/06/17 07:09:14;;;;;;;16.52;14.70;;;436.10;2355.20;;;;;;5060112;28;20246;-83
2023/06/17 07:11:40;;;;;;;14.30;12.90;;;436.10;2355.20;;;;;;5077415;28;20028;-82
2023/06/17 07:14:06;;;;;;;16.45;14.85;;;436.10;2355.20;;;;;;5057120;28;20029;-83
2023/06/17 07:16:32;;;;;;;16.50;14.82;;;460.80;2380.80;;;;;;5054351;28;20460;-82
2023/06/17 07:18:58;;;;;;;14.23;12.73;;;460.80;2380.80;;;;;;5054610;28;20079;-84
2023/06/17 07:21:23;;;;;;;14.70;13.18;;;460.80;2380.80;;;;;;5056236;28;20119;-82
2023/06/17 07:23:50;;;;;;;14.50;12.85;;;460.80;2380.80;;;;;;5057773;28;20025;-82
2023/06/17 07:26:16;;;;;;;16.30;12.57;;;460.90;2355.20;;;;;;5056209;28;20039;-85
2023/06/17 07:28:43;;;;;;;14.13;12.63;;;460.90;2380.80;;;;;;5056065;28;20116;-82
2023/06/17 07:31:08;;;;;;;14.32;12.60;;;460.90;2380.80;;;;;;5057576;28;20718;-82
2023/06/17 07:33:34;;;;;;;14.25;12.45;;;460.90;2304.00;;;;;;5056157;28;20108;-85
2023/06/17 07:36:00;;;;;;;12.90;11.60;;;461.00;2380.80;;;;;;5056087;28;20086;-84
2023/06/17 07:38:26;;;;;;;13.45;12.05;;;461.00;2380.80;;;;;;5056051;28;20029;-82
2023/06/17 07:40:52;;;;;;;15.50;12.70;;;461.10;2380.80;;;;;;5055950;28;20025;-83
2023/06/17 07:43:18;;;;;;;21.00;18.58;;;461.10;2380.80;;;;;;5055442;28;20032;-84
2023/06/17 07:45:43;;;;;;;13.05;11.75;;;461.10;2380.80;;;;;;5055797;28;20029;-82
2023/06/17 07:48:09;;;;;;;13.82;12.05;;;461.10;2380.80;;;;;;5057143;28;20032;-85
2023/06/17 07:50:35;;;;;;;12.98;11.68;;;461.10;2380.80;;;;;;5055361;28;20115;-81
2023/06/17 07:53:01;;;;;;;13.25;11.95;;;461.10;2380.80;;;;;;5055563;28;20033;-83
2023/06/17 07:55:28;;;;;;;12.18;10.65;;;461.20;2380.80;;;;;;5055803;28;20037;-83
2023/06/17 07:57:54;;;;;;;12.70;10.63;;;461.10;2380.80;;;;;;5055415;28;20143;-83
2023/06/17 08:00:20;;;;;;;12.55;11.05;;;461.10;2380.80;;;;;;5056962;28;20508;-84
2023/06/17 08:02:46;;;;;;;13.50;11.38;;;461.20;2380.80;;;;;;5055273;28;20099;-86
2023/06/17 08:05:12;;;;;;;11.93;10.77;;;461.10;2380.80;;;;;;5055216;28;20036;-85
2023/06/17 08:07:38;;;;;;;12.88;10.80;;;461.20;2380.80;;;;;;5055467;28;20483;-82
2023/06/17 08:10:04;;;;;;;10.45;9.35;;;461.20;2380.80;;;;;;5055354;28;20025;-82
2023/06/17 08:12:31;;;;;;;10.73;9.63;;;461.20;2380.80;;;;;;5072538;28;20049;-82
2023/06/17 08:14:57;;;;;;;10.40;9.35;;;461.20;2380.80;;;;;;5073206;28;20040;-84
2023/06/17 08:17:22;;;;;;;10.75;9.65;;;461.10;2380.80;;;;;;5071731;28;20021;-84
2023/06/17 08:19:48;;;;;;;10.25;9.02;;;461.20;2380.80;;;;;;5074508;28;20065;-82
2023/06/17 08:22:14;;;;;;;10.43;8.95;;;461.20;2380.80;;;;;;5076688;28;20028;-83
2023/06/17 08:24:40;;;;;;;10.40;9.30;;;461.10;2380.80;;;;;;5076599;28;20592;-81
2023/06/17 08:27:06;;;;;;;11.48;10.13;;;461.10;2380.80;;;;;;5072340;28;20036;-84
2023/06/17 08:29:32;;;;;;;9.82;8.07;;;461.20;2380.80;;;;;;5055280;28;20033;-81
2023/06/17 08:31:58;;;;;;;11.38;8.68;;;461.10;2380.80;;;;;;5071096;28;20377;-80
2023/06/17 08:34:24;;;;;;;9.98;8.82;;;461.10;2380.80;;;;;;5071630;28;20040;-84
2023/06/17 08:36:54;;;;;;;10.05;9.05;;;461.20;2380.80;;;;;;5071286;28;20025;-83
2023/06/17 08:39:20;;;;;;;12.48;9.82;;;461.50;2380.80;;;;;;5070283;28;20048;-82
2023/06/17 08:41:46;;;;;;;11.77;10.13;;;461.20;2380.80;;;;;;5054468;28;20032;-80
2023/06/17 08:44:13;;;;;;;10.35;8.55;;;461.30;2380.80;;;;;;5054586;28;20056;-82
2023/06/17 08:46:40;;;;;;;11.90;9.90;;;461.00;2380.80;;;;;;5054366;28;20059;-81
2023/06/17 08:49:12;;;;;;;10.43;9.32;;;461.00;2380.80;;;;;;5054301;28;20037;-80
2023/06/17 08:51:38;;;;;;;8.52;7.63;;;461.30;2380.80;;;;;;5053583;28;20025;-82
2023/06/17 08:54:05;;;;;;;9.13;8.20;;;461.30;2380.80;;;;;;5055770;28;20059;-80
2023/06/17 08:56:31;;;;;;;8.57;7.68;;;461.30;2380.80;;;;;;5053906;28;20029;-82
2023/06/17 08:58:57;;;;;;;10.73;8.02;;;461.30;2380.80;;;;;;5053720;28;20353;-83
2023/06/17 09:01:24;;;;;;;10.68;7.60;;;461.30;2380.80;;;;;;5055232;28;20021;-82
2023/06/17 09:03:51;;;;;;;10.05;8.40;;;461.30;2380.80;;;;;;5053823;28;20025;-80
2023/06/17 09:06:21;;;;;;;8.55;7.65;;;461.40;2380.80;;;;;;5050845;28;20102;-81
2023/06/17 09:08:48;;;;;;;8.45;7.55;;;461.40;2380.80;;;;;;5053736;28;20021;-82
2023/06/17 09:11:14;;;;;;;9.05;8.07;;;461.40;2380.80;;;;;;5054567;28;20028;-80
2023/06/17 09:13:40;;;;;;;8.77;7.88;;;461.10;2380.80;;;;;;5053452;28;20021;-81
2023/06/17 09:16:07;;;;;;;10.77;7.97;;;461.40;2380.80;;;;;;5053978;28;20028;-80
2023/06/17 09:18:34;;;;;;;9.27;8.27;;;461.40;2380.80;;;;;;5055403;28;20037;-82
2023/06/17 09:21:02;;;;;;;9.95;8.93;;;461.40;2380.80;;;;;;5053732;28;20032;-81
2023/06/17 09:23:28;;;;;;;11.85;10.65;;;461.40;2380.80;;;;;;5053571;28;20025;-83
2023/06/17 09:26:02;;;;;;;9.98;9.02;;;461.40;2380.80;;;;;;5053717;28;20495;-84
2023/06/17 09:28:29;;;;;;;10.98;9.63;;;461.40;2380.80;;;;;;5050780;28;20029;-80
2023/06/17 09:30:57;;;;;;;11.82;9.10;;;486.40;2380.80;;;;;;5053795;28;20025;-82
2023/06/17 09:33:25;;;;;;;9.55;8.35;;;461.40;2380.80;;;;;;5053826;28;20469;-85
2023/06/17 09:36:01;;;;;;;9.00;8.10;;;461.40;2380.80;;;;;;5069812;28;20090;-79
2023/06/17 09:38:33;;;;;;;11.23;8.27;;;461.40;2380.80;;;;;;5054453;28;20025;-82
2023/06/17 09:40:59;;;;;;;10.20;8.90;;;461.40;2380.80;;;;;;5054502;28;20427;-81
2023/06/17 09:43:27;;;;;;;10.93;8.85;;;461.00;2380.80;;;;;;5069579;28;20029;-84
2023/06/17 09:45:59;;;;;;;11.60;9.55;;;461.40;2380.80;;;;;;5070003;28;20040;-80
2023/06/17 09:48:32;;;;;;;10.35;9.30;;;461.40;2380.80;;;;;;5069745;28;20029;-78
2023/06/17 09:50:58;;;;;;;10.98;9.88;;;461.30;2380.80;;;;;;5070210;28;20021;-84
2023/06/17 09:53:29;;;;;;;11.10;10.00;;;461.40;2380.80;;;;;;5070002;28;20033;-84
2023/06/17 09:55:57;;;;;;;11.52;9.52;;;461.30;2380.80;;;;;;5053019;28;20453;-80
2023/06/17 09:58:28;;;;;;;11.48;10.27;;;461.20;2380.80;;;;;;5070035;28;20048;-81
2023/06/17 10:00:56;;;;;;;11.65;9.48;;;461.30;2380.80;;;;;;5053161;28;20376;-82
2023/06/17 10:03:22;;;;;;;10.07;8.95;;;461.30;2380.80;;;;;;5069522;28;20025;-81
2023/06/17 10:06:05;;;;;;;11.10;9.95;;;461.30;2380.80;;;;;;5069633;28;20110;-80
2023/06/17 10:08:34;;;;;;;12.93;10.10;;;461.40;2380.80;;;;;;5054342;28;20032;-80
2023/06/17 10:11:00;;;;;;;13.32;10.32;;;461.40;2380.80;;;;;;5053174;28;20025;-80
2023/06/17 10:13:31;;;;;;;11.05;9.85;;;461.40;2380.80;;;;;;5054212;28;20108;-80
2023/06/17 10:16:00;;;;;;;11.15;9.57;;;461.50;2380.80;;;;;;5053854;28;20101;-80
2023/06/17 10:18:29;;;;;;;12.85;10.40;;;461.50;2380.80;;;;;;5069480;28;20021;-83
2023/06/17 10:20:55;;;;;;;11.50;9.48;;;461.60;2380.80;;;;;;5052708;28;20510;-79
2023/06/17 10:23:23;;;;;;;14.70;10.35;;;486.70;2380.80;;;;;;5068995;28;20074;-83
2023/06/17 10:25:48;;;;;;;11.02;9.90;;;461.70;2380.80;;;;;;5052567;28;20036;-78
2023/06/17 10:28:15;;;;;;;12.75;9.05;;;461.70;2380.80;;;;;;5069407;28;20033;-79
2023/06/17 10:30:44;;;;;;;10.20;9.20;;;486.40;2380.80;;;;;;5068925;28;20069;-80
2023/06/17 10:33:11;;;;;;;14.95;13.07;;;486.40;2380.80;;;;;;5069202;28;20393;-77
2023/06/17 10:35:41;;;;;;;12.30;10.93;;;461.70;2380.80;;;;;;5052452;28;20206;-79
2023/06/17 10:38:08;;;;;;;13.00;11.02;;;486.40;2380.80;;;;;;5052121;28;20162;-78
2023/06/17 10:40:50;;;;;;;14.55;12.05;;;486.40;2380.80;;;;;;5052518;28;20025;-79
2023/06/17 10:43:17;;;;;;;13.15;9.85;;;486.40;2380.80;;;;;;5052525;28;20025;-79
2023/06/17 10:45:56;;;;;;;12.55;10.05;;;486.50;2380.80;;;;;;5068762;28;20025;-80
2023/06/17 10:48:33;;;;;;;11.82;8.82;;;486.50;2380.80;;;;;;5052468;28;20032;-80
2023/06/17 10:51:03;;;;;;;10.90;9.43;;;486.50;2380.80;;;;;;5071259;28;20029;-77
2023/06/17 10:53:31;;;;;;;10.68;9.57;;;486.50;2380.80;;;;;;5084858;28;20029;-77
2023/06/17 10:55:58;;;;;;;10.70;9.00;;;486.50;2380.80;;;;;;5068804;28;20028;-81
2023/06/17 10:58:31;;;;;;;9.65;8.55;;;486.60;2380.80;;;;;;5056198;28;20030;-79
2023/06/17 11:01:06;;;;;;;10.90;9.40;;;486.60;2380.80;;;;;;5033364;28;20084;-79
2023/06/17 11:03:32;;;;;;;11.60;10.40;;;486.60;2380.80;;;;;;5033364;28;20477;-77
2023/06/17 11:06:03;;;;;;;12.30;8.95;;;486.60;2380.80;;;;;;5031843;28;20061;-80
2023/06/17 11:08:33;;;;;;;11.02;9.07;;;486.60;2380.80;;;;;;5048893;28;20056;-80
2023/06/17 11:11:25;;;;;;;14.95;10.80;;;486.60;2380.80;;;;;;5048881;28;20099;-80
2023/06/17 11:13:51;;;;;;;14.70;11.43;;;486.70;2380.80;;;;;;5030849;28;20037;-80
2023/06/17 11:16:18;;;;;;;9.00;8.07;;;486.70;2380.80;;;;;;5032084;28;20029;-80
2023/06/17 11:18:45;;;;;;;9.45;8.30;;;486.80;2380.80;;;;;;5048380;28;20540;-81
2023/06/17 11:21:11;;;;;;;8.80;7.85;;;486.70;2380.80;;;;;;5048760;28;20397;-78
2023/06/17 11:23:38;;;;;;;13.98;10.00;;;486.70;2380.80;;;;;;5048365;28;20036;-79
2023/06/17 11:26:08;;;;;;;12.60;10.88;;;486.70;2380.80;;;;;;5031627;28;20466;-78
2023/06/17 11:28:35;;;;;;;12.02;8.65;;;486.80;2380.80;;;;;;5031860;28;20460;-80
2023/06/17 11:31:02;;;;;;;11.25;8.32;;;486.90;2380.80;;;;;;5049048;28;20029;-78
2023/06/17 11:33:28;;;;;;;13.77;11.60;;;486.90;2380.80;;;;;;5051427;28;20510;-78
2023/06/17 11:35:55;;;;;;;10.73;8.77;;;487.00;2380.80;;;;;;5053067;28;20033;-78
2023/06/17 11:38:21;;;;;;;9.80;8.55;;;487.00;2380.80;;;;;;5051830;28;20025;-76
2023/06/17 11:40:53;;;;;;;13.95;10.73;;;487.00;2380.80;;;;;;5051411;28;20033;-78
2023/06/17 11:43:24;;;;;;;11.68;10.48;;;487.00;2380.80;;;;;;5053344;28;20025;-77
2023/06/17 11:45:50;;;;;;;11.68;10.30;;;487.00;2380.80;;;;;;5051787;28;20040;-78
2023/06/17 11:48:17;;;;;;;12.65;10.90;;;487.00;2380.80;;;;;;5051433;28;20033;-79
2023/06/17 11:50:43;;;;;;;10.05;8.43;;;487.00;2380.80;;;;;;5051799;28;20029;-80
2023/06/17 11:53:09;;;;;;;10.50;8.65;;;487.00;2380.80;;;;;;5051765;28;20122;-79
2023/06/17 11:55:36;;;;;;;12.20;10.25;;;487.00;2380.80;;;;;;5051431;28;20028;-76
2023/06/17 11:58:04;;;;;;;14.50;10.15;;;487.00;2380.80;;;;;;5051651;28;20053;-77
2023/06/17 12:00:35;;;;;;;11.30;8.55;;;487.30;2380.80;;;;;;5051304;28;20373;-78
2023/06/17 12:03:03;;;;;;;11.00;8.60;;;487.00;2380.80;;;;;;5030552;28;20041;-79
2023/06/17 12:05:28;;;;;;;9.60;8.40;;;487.00;2380.80;;;;;;5030950;28;20046;-77